sensor_id;sensor_type;location;lat;lon;timestamp;temperature;humidity
39453;DHT22;25154;-33.684;151.102;2023-08-24T00:02:19;16.00;99.90
39453;DHT22;25154;-33.684;151.102;2023-08-24T00:07:21;15.80;99.90
39453;DHT22;25154;-33.684;151.102;2023-08-24T00:12:24;15.80;99.90
39453;DHT22;25154;-33.684;151.102;2023-08-24T00:17:27;15.80;99.90
39453;DHT22;25154;-33.684;151.102;2023-08-24T00:22:31;16.10;99.90
39453;DHT22;25154;-33.684;151.102;2023-08-24T00:27:35;16.40;99.90
39453;DHT22;25154;-33.684;151.102;2023-08-24T00:32:38;16.90;99.90
39453;DHT22;25154;-33.684;151.102;2023-08-24T00:37:40;16.10;99.90
39453;DHT22;25154;-33.684;151.102;2023-08-24T00:42:44;16.10;99.90
39453;DHT22;25154;-33.684;151.102;2023-08-24T00:47:50;16.00;99.90
39453;DHT22;25154;-33.684;151.102;2023-08-24T00:52:54;15.90;99.90
39453;DHT22;25154;-33.684;151.102;2023-08-24T00:57:58;15.80;99.90
39453;DHT22;25154;-33.684;151.102;2023-08-24T01:03:01;15.70;99.90
39453;DHT22;25154;-33.684;151.102;2023-08-24T01:08:04;15.80;99.90
39453;DHT22;25154;-33.684;151.102;2023-08-24T01:13:11;15.80;99.90
39453;DHT22;25154;-33.684;151.102;2023-08-24T01:18:21;15.60;99.90
39453;DHT22;25154;-33.684;151.102;2023-08-24T01:23:41;15.70;99.90
39453;DHT22;25154;-33.684;151.102;2023-08-24T01:28:45;15.70;99.90
39453;DHT22;25154;-33.684;151.102;2023-08-24T01:33:48;15.40;99.90
39453;DHT22;25154;-33.684;151.102;2023-08-24T01:39:11;15.40;99.90
39453;DHT22;25154;-33.684;151.102;2023-08-24T01:44:16;15.40;99.90
39453;DHT22;25154;-33.684;151.102;2023-08-24T01:49:23;15.30;99.90
39453;DHT22;25154;-33.684;151.102;2023-08-24T01:54:26;15.40;99.90
39453;DHT22;25154;-33.684;151.102;2023-08-24T01:59:30;15.50;99.90
39453;DHT22;25154;-33.684;151.102;2023-08-24T02:04:32;15.70;99.90
39453;DHT22;25154;-33.684;151.102;2023-08-24T02:09:35;15.80;99.90
39453;DHT22;25154;-33.684;151.102;2023-08-24T02:14:38;16.00;99.90
39453;DHT22;25154;-33.684;151.102;2023-08-24T02:19:41;16.20;99.90
39453;DHT22;25154;-33.684;151.102;2023-08-24T02:24:44;16.40;99.90
39453;DHT22;25154;-33.684;151.102;2023-08-24T02:29:47;16.70;99.90
39453;DHT22;25154;-33.684;151.102;2023-08-24T02:34:49;17.00;99.90
39453;DHT22;25154;-33.684;151.102;2023-08-24T02:39:54;17.10;99.90
39453;DHT22;25154;-33.684;151.102;2023-08-24T02:44:57;18.40;99.90
39453;DHT22;25154;-33.684;151.102;2023-08-24T02:50:00;19.90;99.90
39453;DHT22;25154;-33.684;151.102;2023-08-24T02:55:02;19.60;99.90
39453;DHT22;25154;-33.684;151.102;2023-08-24T03:00:06;19.20;99.90
39453;DHT22;25154;-33.684;151.102;2023-08-24T03:05:09;18.70;99.90
39453;DHT22;25154;-33.684;151.102;2023-08-24T03:10:12;18.90;99.90
39453;DHT22;25154;-33.684;151.102;2023-08-24T03:15:14;19.10;99.90
39453;DHT22;25154;-33.684;151.102;2023-08-24T03:20:17;19.10;99.90
39453;DHT22;25154;-33.684;151.102;2023-08-24T03:25:20;19.30;99.90
39453;DHT22;25154;-33.684;151.102;2023-08-24T03:30:23;19.60;99.90
39453;DHT22;25154;-33.684;151.102;2023-08-24T03:35:26;20.30;99.90
39453;DHT22;25154;-33.684;151.102;2023-08-24T03:40:28;20.70;99.90
39453;DHT22;25154;-33.684;151.102;2023-08-24T03:45:31;20.00;99.90
39453;DHT22;25154;-33.684;151.102;2023-08-24T03:50:34;20.50;99.90
39453;DHT22;25154;-33.684;151.102;2023-08-24T03:55:36;19.10;99.90
39453;DHT22;25154;-33.684;151.102;2023-08-24T04:00:39;20.70;99.20
39453;DHT22;25154;-33.684;151.102;2023-08-24T04:05:43;19.90;99.90
39453;DHT22;25154;-33.684;151.102;2023-08-24T04:10:45;20.40;99.30
39453;DHT22;25154;-33.684;151.102;2023-08-24T04:15:48;21.10;99.00
39453;DHT22;25154;-33.684;151.102;2023-08-24T04:20:52;21.00;98.70
39453;DHT22;25154;-33.684;151.102;2023-08-24T04:25:55;20.20;99.90
39453;DHT22;25154;-33.684;151.102;2023-08-24T04:30:59;19.70;99.90
39453;DHT22;25154;-33.684;151.102;2023-08-24T04:36:02;19.60;99.90
39453;DHT22;25154;-33.684;151.102;2023-08-24T04:41:09;20.20;99.90
39453;DHT22;25154;-33.684;151.102;2023-08-24T04:46:14;23.20;92.60
39453;DHT22;25154;-33.684;151.102;2023-08-24T04:51:16;20.30;98.40
39453;DHT22;25154;-33.684;151.102;2023-08-24T04:56:19;20.50;97.20
39453;DHT22;25154;-33.684;151.102;2023-08-24T05:01:22;20.20;99.90
39453;DHT22;25154;-33.684;151.102;2023-08-24T05:06:26;24.90;88.80
39453;DHT22;25154;-33.684;151.102;2023-08-24T05:11:29;20.70;96.70
39453;DHT22;25154;-33.684;151.102;2023-08-24T05:16:32;18.40;99.90
39453;DHT22;25154;-33.684;151.102;2023-08-24T05:21:35;17.70;99.90
39453;DHT22;25154;-33.684;151.102;2023-08-24T05:26:38;17.70;99.90
39453;DHT22;25154;-33.684;151.102;2023-08-24T05:31:41;18.30;99.90
39453;DHT22;25154;-33.684;151.102;2023-08-24T05:36:44;24.10;93.30
39453;DHT22;25154;-33.684;151.102;2023-08-24T05:41:50;26.20;86.70
39453;DHT22;25154;-33.684;151.102;2023-08-24T05:46:53;26.30;83.40
39453;DHT22;25154;-33.684;151.102;2023-08-24T05:51:55;22.20;94.50
39453;DHT22;25154;-33.684;151.102;2023-08-24T05:56:58;20.20;99.30
39453;DHT22;25154;-33.684;151.102;2023-08-24T06:02:04;19.40;99.90
39453;DHT22;25154;-33.684;151.102;2023-08-24T06:07:06;19.50;99.90
39453;DHT22;25154;-33.684;151.102;2023-08-24T06:12:09;20.90;95.30
39453;DHT22;25154;-33.684;151.102;2023-08-24T06:17:12;26.90;80.20
39453;DHT22;25154;-33.684;151.102;2023-08-24T06:22:15;28.30;77.00
39453;DHT22;25154;-33.684;151.102;2023-08-24T06:27:18;27.80;72.50
39453;DHT22;25154;-33.684;151.102;2023-08-24T06:32:21;27.30;77.10
39453;DHT22;25154;-33.684;151.102;2023-08-24T06:37:24;27.00;75.30
39453;DHT22;25154;-33.684;151.102;2023-08-24T06:42:27;26.90;76.00
39453;DHT22;25154;-33.684;151.102;2023-08-24T06:47:30;26.50;77.70
39453;DHT22;25154;-33.684;151.102;2023-08-24T06:52:32;25.40;77.20
39453;DHT22;25154;-33.684;151.102;2023-08-24T06:57:35;24.90;79.20
39453;DHT22;25154;-33.684;151.102;2023-08-24T07:02:38;22.70;83.70
39453;DHT22;25154;-33.684;151.102;2023-08-24T07:07:41;18.90;97.30
39453;DHT22;25154;-33.684;151.102;2023-08-24T07:12:46;17.10;99.90
39453;DHT22;25154;-33.684;151.102;2023-08-24T07:17:48;16.20;99.90
39453;DHT22;25154;-33.684;151.102;2023-08-24T07:22:51;15.60;99.90
39453;DHT22;25154;-33.684;151.102;2023-08-24T07:27:56;15.10;99.90
39453;DHT22;25154;-33.684;151.102;2023-08-24T07:33:02;14.70;99.90
39453;DHT22;25154;-33.684;151.102;2023-08-24T07:38:04;14.30;99.90
39453;DHT22;25154;-33.684;151.102;2023-08-24T07:43:07;13.90;99.90
39453;DHT22;25154;-33.684;151.102;2023-08-24T07:48:10;13.50;99.90
39453;DHT22;25154;-33.684;151.102;2023-08-24T07:53:12;13.30;99.90
39453;DHT22;25154;-33.684;151.102;2023-08-24T07:58:15;13.10;99.90
39453;DHT22;25154;-33.684;151.102;2023-08-24T08:03:18;13.10;99.90
39453;DHT22;25154;-33.684;151.102;2023-08-24T08:08:21;12.80;99.90
39453;DHT22;25154;-33.684;151.102;2023-08-24T08:13:23;12.60;99.90
39453;DHT22;25154;-33.684;151.102;2023-08-24T08:18:25;12.50;99.90
39453;DHT22;25154;-33.684;151.102;2023-08-24T08:23:28;13.50;99.90
39453;DHT22;25154;-33.684;151.102;2023-08-24T08:28:31;12.00;99.90
39453;DHT22;25154;-33.684;151.102;2023-08-24T08:33:36;11.90;99.90
39453;DHT22;25154;-33.684;151.102;2023-08-24T08:38:39;11.80;99.90
39453;DHT22;25154;-33.684;151.102;2023-08-24T08:43:42;11.60;99.90
39453;DHT22;25154;-33.684;151.102;2023-08-24T08:48:46;11.50;99.90
39453;DHT22;25154;-33.684;151.102;2023-08-24T08:53:49;11.20;99.90
39453;DHT22;25154;-33.684;151.102;2023-08-24T08:58:52;11.30;99.90
39453;DHT22;25154;-33.684;151.102;2023-08-24T09:03:58;11.00;99.90
39453;DHT22;25154;-33.684;151.102;2023-08-24T09:09:01;11.10;99.90
39453;DHT22;25154;-33.684;151.102;2023-08-24T09:14:05;10.90;99.90
39453;DHT22;25154;-33.684;151.102;2023-08-24T09:19:11;11.00;99.90
39453;DHT22;25154;-33.684;151.102;2023-08-24T09:24:14;10.90;99.90
39453;DHT22;25154;-33.684;151.102;2023-08-24T09:29:17;10.90;99.90
39453;DHT22;25154;-33.684;151.102;2023-08-24T09:34:22;10.70;99.90
39453;DHT22;25154;-33.684;151.102;2023-08-24T09:39:29;10.80;99.90
39453;DHT22;25154;-33.684;151.102;2023-08-24T09:44:32;10.70;99.90
39453;DHT22;25154;-33.684;151.102;2023-08-24T09:49:35;10.40;99.90
39453;DHT22;25154;-33.684;151.102;2023-08-24T09:54:39;10.60;99.90
39453;DHT22;25154;-33.684;151.102;2023-08-24T09:59:44;10.50;99.90
39453;DHT22;25154;-33.684;151.102;2023-08-24T10:04:51;10.40;99.90
39453;DHT22;25154;-33.684;151.102;2023-08-24T10:09:59;10.20;99.90
39453;DHT22;25154;-33.684;151.102;2023-08-24T10:15:05;10.00;99.90
39453;DHT22;25154;-33.684;151.102;2023-08-24T10:20:15;10.20;99.90
39453;DHT22;25154;-33.684;151.102;2023-08-24T10:25:19;10.20;99.90
39453;DHT22;25154;-33.684;151.102;2023-08-24T10:30:24;10.20;99.90
39453;DHT22;25154;-33.684;151.102;2023-08-24T10:35:27;10.00;99.90
39453;DHT22;25154;-33.684;151.102;2023-08-24T10:40:34;9.70;99.90
39453;DHT22;25154;-33.684;151.102;2023-08-24T10:45:57;9.90;99.90
39453;DHT22;25154;-33.684;151.102;2023-08-24T10:56:19;9.80;99.90
39453;DHT22;25154;-33.684;151.102;2023-08-24T11:01:23;9.70;99.90
39453;DHT22;25154;-33.684;151.102;2023-08-24T11:06:26;9.60;99.90
39453;DHT22;25154;-33.684;151.102;2023-08-24T11:11:31;9.50;99.90
39453;DHT22;25154;-33.684;151.102;2023-08-24T11:16:41;9.40;99.90
39453;DHT22;25154;-33.684;151.102;2023-08-24T11:21:46;9.30;99.90
39453;DHT22;25154;-33.684;151.102;2023-08-24T11:26:50;10.20;99.90
39453;DHT22;25154;-33.684;151.102;2023-08-24T11:31:54;9.30;99.90
39453;DHT22;25154;-33.684;151.102;2023-08-24T11:36:57;9.10;99.90
39453;DHT22;25154;-33.684;151.102;2023-08-24T11:42:04;9.10;99.90
39453;DHT22;25154;-33.684;151.102;2023-08-24T11:47:09;9.20;99.90
39453;DHT22;25154;-33.684;151.102;2023-08-24T11:52:12;9.20;99.90
39453;DHT22;25154;-33.684;151.102;2023-08-24T11:57:17;9.20;99.90
39453;DHT22;25154;-33.684;151.102;2023-08-24T12:02:20;9.20;99.90
39453;DHT22;25154;-33.684;151.102;2023-08-24T12:07:24;9.10;99.90
39453;DHT22;25154;-33.684;151.102;2023-08-24T12:12:28;9.10;99.90
39453;DHT22;25154;-33.684;151.102;2023-08-24T12:17:41;9.00;99.90
39453;DHT22;25154;-33.684;151.102;2023-08-24T12:22:49;8.90;99.90
39453;DHT22;25154;-33.684;151.102;2023-08-24T12:28:14;8.90;99.90
39453;DHT22;25154;-33.684;151.102;2023-08-24T12:33:30;8.70;99.90
39453;DHT22;25154;-33.684;151.102;2023-08-24T12:38:33;8.90;99.90
39453;DHT22;25154;-33.684;151.102;2023-08-24T12:43:37;8.70;99.90
39453;DHT22;25154;-33.684;151.102;2023-08-24T12:48:40;8.50;99.90
39453;DHT22;25154;-33.684;151.102;2023-08-24T12:53:44;8.70;99.90
39453;DHT22;25154;-33.684;151.102;2023-08-24T12:58:47;8.70;99.90
39453;DHT22;25154;-33.684;151.102;2023-08-24T13:03:53;8.50;99.90
39453;DHT22;25154;-33.684;151.102;2023-08-24T13:08:56;8.60;99.90
39453;DHT22;25154;-33.684;151.102;2023-08-24T13:13:59;8.30;99.90
39453;DHT22;25154;-33.684;151.102;2023-08-24T13:19:02;8.50;99.90
39453;DHT22;25154;-33.684;151.102;2023-08-24T13:24:05;8.50;99.90
39453;DHT22;25154;-33.684;151.102;2023-08-24T13:29:07;8.50;99.90
39453;DHT22;25154;-33.684;151.102;2023-08-24T13:34:10;8.30;99.90
39453;DHT22;25154;-33.684;151.102;2023-08-24T13:39:13;8.20;99.90
39453;DHT22;25154;-33.684;151.102;2023-08-24T13:44:16;8.40;99.90
39453;DHT22;25154;-33.684;151.102;2023-08-24T13:49:22;8.20;99.90
39453;DHT22;25154;-33.684;151.102;2023-08-24T13:54:25;8.20;99.90
39453;DHT22;25154;-33.684;151.102;2023-08-24T13:59:28;8.30;99.90
39453;DHT22;25154;-33.684;151.102;2023-08-24T14:04:31;8.20;99.90
39453;DHT22;25154;-33.684;151.102;2023-08-24T14:09:34;8.20;99.90
39453;DHT22;25154;-33.684;151.102;2023-08-24T14:14:40;8.00;99.90
39453;DHT22;25154;-33.684;151.102;2023-08-24T14:19:43;8.00;99.90
39453;DHT22;25154;-33.684;151.102;2023-08-24T14:24:45;7.90;99.90
39453;DHT22;25154;-33.684;151.102;2023-08-24T14:29:48;8.00;99.90
39453;DHT22;25154;-33.684;151.102;2023-08-24T14:34:51;7.90;99.90
39453;DHT22;25154;-33.684;151.102;2023-08-24T14:39:54;7.90;99.90
39453;DHT22;25154;-33.684;151.102;2023-08-24T14:44:57;7.70;99.90
39453;DHT22;25154;-33.684;151.102;2023-08-24T14:49:59;7.70;99.90
39453;DHT22;25154;-33.684;151.102;2023-08-24T14:55:02;7.60;99.90
39453;DHT22;25154;-33.684;151.102;2023-08-24T15:00:06;7.50;99.90
39453;DHT22;25154;-33.684;151.102;2023-08-24T15:05:11;7.30;99.90
39453;DHT22;25154;-33.684;151.102;2023-08-24T15:10:14;7.30;99.90
39453;DHT22;25154;-33.684;151.102;2023-08-24T15:15:18;7.30;99.90
39453;DHT22;25154;-33.684;151.102;2023-08-24T15:20:21;7.40;99.90
39453;DHT22;25154;-33.684;151.102;2023-08-24T15:25:24;7.20;99.90
39453;DHT22;25154;-33.684;151.102;2023-08-24T15:30:27;7.10;99.90
39453;DHT22;25154;-33.684;151.102;2023-08-24T15:35:31;7.40;99.90
39453;DHT22;25154;-33.684;151.102;2023-08-24T15:40:33;7.30;99.90
39453;DHT22;25154;-33.684;151.102;2023-08-24T15:45:36;7.30;99.90
39453;DHT22;25154;-33.684;151.102;2023-08-24T15:50:39;7.20;99.90
39453;DHT22;25154;-33.684;151.102;2023-08-24T15:55:42;7.10;99.90
39453;DHT22;25154;-33.684;151.102;2023-08-24T16:00:45;6.90;99.90
39453;DHT22;25154;-33.684;151.102;2023-08-24T16:05:49;6.80;99.90
39453;DHT22;25154;-33.684;151.102;2023-08-24T16:10:56;6.80;99.90
39453;DHT22;25154;-33.684;151.102;2023-08-24T16:15:59;6.80;99.90
39453;DHT22;25154;-33.684;151.102;2023-08-24T16:21:02;6.80;99.90
39453;DHT22;25154;-33.684;151.102;2023-08-24T16:26:05;6.70;99.90
39453;DHT22;25154;-33.684;151.102;2023-08-24T16:31:08;6.60;99.90
39453;DHT22;25154;-33.684;151.102;2023-08-24T16:36:10;6.60;99.90
39453;DHT22;25154;-33.684;151.102;2023-08-24T16:41:13;6.50;99.90
39453;DHT22;25154;-33.684;151.102;2023-08-24T16:46:16;6.60;99.90
39453;DHT22;25154;-33.684;151.102;2023-08-24T16:51:19;6.70;99.90
39453;DHT22;25154;-33.684;151.102;2023-08-24T16:56:22;6.70;99.90
39453;DHT22;25154;-33.684;151.102;2023-08-24T17:01:24;6.50;99.90
39453;DHT22;25154;-33.684;151.102;2023-08-24T17:06:27;6.50;99.90
39453;DHT22;25154;-33.684;151.102;2023-08-24T17:11:29;6.50;99.90
39453;DHT22;25154;-33.684;151.102;2023-08-24T17:16:32;6.80;99.90
39453;DHT22;25154;-33.684;151.102;2023-08-24T17:21:34;6.60;99.90
39453;DHT22;25154;-33.684;151.102;2023-08-24T17:26:37;6.50;99.90
39453;DHT22;25154;-33.684;151.102;2023-08-24T17:31:39;6.40;99.90
39453;DHT22;25154;-33.684;151.102;2023-08-24T17:36:41;6.20;99.90
39453;DHT22;25154;-33.684;151.102;2023-08-24T17:41:44;6.40;99.90
39453;DHT22;25154;-33.684;151.102;2023-08-24T17:46:49;6.30;99.90
39453;DHT22;25154;-33.684;151.102;2023-08-24T17:51:52;6.30;99.90
39453;DHT22;25154;-33.684;151.102;2023-08-24T17:56:54;6.00;99.90
39453;DHT22;25154;-33.684;151.102;2023-08-24T18:01:57;6.20;99.90
39453;DHT22;25154;-33.684;151.102;2023-08-24T18:07:00;6.10;99.90
39453;DHT22;25154;-33.684;151.102;2023-08-24T18:12:03;6.30;99.90
39453;DHT22;25154;-33.684;151.102;2023-08-24T18:17:07;6.30;99.90
39453;DHT22;25154;-33.684;151.102;2023-08-24T18:22:10;6.20;99.90
39453;DHT22;25154;-33.684;151.102;2023-08-24T18:27:14;6.10;99.90
39453;DHT22;25154;-33.684;151.102;2023-08-24T18:32:16;6.10;99.90
39453;DHT22;25154;-33.684;151.102;2023-08-24T18:37:18;6.30;99.90
39453;DHT22;25154;-33.684;151.102;2023-08-24T18:42:21;5.90;99.90
39453;DHT22;25154;-33.684;151.102;2023-08-24T18:47:28;5.80;99.90
39453;DHT22;25154;-33.684;151.102;2023-08-24T18:52:30;5.80;99.90
39453;DHT22;25154;-33.684;151.102;2023-08-24T18:57:32;6.10;99.90
39453;DHT22;25154;-33.684;151.102;2023-08-24T19:02:35;5.80;99.90
39453;DHT22;25154;-33.684;151.102;2023-08-24T19:07:37;5.80;99.90
39453;DHT22;25154;-33.684;151.102;2023-08-24T19:12:39;6.00;99.90
39453;DHT22;25154;-33.684;151.102;2023-08-24T19:17:42;5.90;99.90
39453;DHT22;25154;-33.684;151.102;2023-08-24T19:22:46;5.90;99.90
39453;DHT22;25154;-33.684;151.102;2023-08-24T19:27:49;5.80;99.90
39453;DHT22;25154;-33.684;151.102;2023-08-24T19:32:51;5.70;99.90
39453;DHT22;25154;-33.684;151.102;2023-08-24T19:37:55;5.70;99.90
39453;DHT22;25154;-33.684;151.102;2023-08-24T19:42:59;5.30;99.90
39453;DHT22;25154;-33.684;151.102;2023-08-24T19:48:03;5.40;99.90
39453;DHT22;25154;-33.684;151.102;2023-08-24T19:53:07;5.40;99.90
39453;DHT22;25154;-33.684;151.102;2023-08-24T19:58:10;5.70;99.90
39453;DHT22;25154;-33.684;151.102;2023-08-24T20:03:12;5.50;99.90
39453;DHT22;25154;-33.684;151.102;2023-08-24T20:08:15;5.50;99.90
39453;DHT22;25154;-33.684;151.102;2023-08-24T20:13:18;5.30;99.90
39453;DHT22;25154;-33.684;151.102;2023-08-24T20:18:22;5.30;99.90
39453;DHT22;25154;-33.684;151.102;2023-08-24T20:23:29;5.30;99.90
39453;DHT22;25154;-33.684;151.102;2023-08-24T20:28:34;5.30;99.90
39453;DHT22;25154;-33.684;151.102;2023-08-24T20:33:38;5.20;99.90
39453;DHT22;25154;-33.684;151.102;2023-08-24T20:38:42;5.20;99.90
39453;DHT22;25154;-33.684;151.102;2023-08-24T20:43:45;5.30;99.90
39453;DHT22;25154;-33.684;151.102;2023-08-24T20:48:47;5.60;99.90
39453;DHT22;25154;-33.684;151.102;2023-08-24T20:53:50;5.20;99.90
39453;DHT22;25154;-33.684;151.102;2023-08-24T20:58:52;5.40;99.90
39453;DHT22;25154;-33.684;151.102;2023-08-24T21:03:54;5.30;99.90
39453;DHT22;25154;-33.684;151.102;2023-08-24T21:08:57;5.40;99.90
39453;DHT22;25154;-33.684;151.102;2023-08-24T21:13:59;5.60;99.90
39453;DHT22;25154;-33.684;151.102;2023-08-24T21:19:02;5.60;99.90
39453;DHT22;25154;-33.684;151.102;2023-08-24T21:24:05;5.80;99.90
39453;DHT22;25154;-33.684;151.102;2023-08-24T21:29:09;6.00;99.90
39453;DHT22;25154;-33.684;151.102;2023-08-24T21:34:11;6.10;99.90
39453;DHT22;25154;-33.684;151.102;2023-08-24T21:39:14;6.20;99.90
39453;DHT22;25154;-33.684;151.102;2023-08-24T21:44:16;6.50;99.90
39453;DHT22;25154;-33.684;151.102;2023-08-24T21:49:18;6.90;99.90
39453;DHT22;25154;-33.684;151.102;2023-08-24T21:54:22;7.40;99.90
39453;DHT22;25154;-33.684;151.102;2023-08-24T21:59:24;8.10;99.90
39453;DHT22;25154;-33.684;151.102;2023-08-24T22:04:27;8.20;99.90
39453;DHT22;25154;-33.684;151.102;2023-08-24T22:09:29;9.00;99.90
39453;DHT22;25154;-33.684;151.102;2023-08-24T22:14:31;9.50;99.90
39453;DHT22;25154;-33.684;151.102;2023-08-24T22:19:34;9.70;99.90
39453;DHT22;25154;-33.684;151.102;2023-08-24T22:24:37;10.00;99.90
39453;DHT22;25154;-33.684;151.102;2023-08-24T22:29:39;10.60;99.90
39453;DHT22;25154;-33.684;151.102;2023-08-24T22:34:42;11.00;99.90
39453;DHT22;25154;-33.684;151.102;2023-08-24T22:39:44;11.30;99.90
39453;DHT22;25154;-33.684;151.102;2023-08-24T22:44:47;11.70;99.90
39453;DHT22;25154;-33.684;151.102;2023-08-24T22:49:49;12.10;99.90
39453;DHT22;25154;-33.684;151.102;2023-08-24T22:54:52;12.40;99.90
39453;DHT22;25154;-33.684;151.102;2023-08-24T22:59:54;12.60;99.90
39453;DHT22;25154;-33.684;151.102;2023-08-24T23:04:57;12.90;99.90
39453;DHT22;25154;-33.684;151.102;2023-08-24T23:09:59;13.10;99.90
39453;DHT22;25154;-33.684;151.102;2023-08-24T23:15:02;13.40;99.90
39453;DHT22;25154;-33.684;151.102;2023-08-24T23:20:06;13.70;99.90
39453;DHT22;25154;-33.684;151.102;2023-08-24T23:25:08;13.90;99.90
39453;DHT22;25154;-33.684;151.102;2023-08-24T23:30:11;14.30;99.90
39453;DHT22;25154;-33.684;151.102;2023-08-24T23:35:16;14.60;99.90
39453;DHT22;25154;-33.684;151.102;2023-08-24T23:40:18;14.90;99.90
39453;DHT22;25154;-33.684;151.102;2023-08-24T23:45:20;14.90;99.90
39453;DHT22;25154;-33.684;151.102;2023-08-24T23:50:23;15.30;99.90
39453;DHT22;25154;-33.684;151.102;2023-08-24T23:55:25;15.60;99.90
